Time;durP1;ratioP1;P1;durP2;ratioP2;P2;SDS_P1;SDS_P2;PMS_P1;PMS_P2;Temp;Humidity;BMP_temperature;BMP_pressure;BME280_temperature;BME280_humidity;BME280_pressure;Samples;Min_cycle;Max_cycle;Signal;HPM_P1;HPM_P2
2021/05/06 00:02:23;;;;;;;7.93;4.60;;;10.00;94.80;;;;;;5104945;28;20416;-71
2021/05/06 00:05:08;;;;;;;7.97;4.70;;;9.90;94.60;;;;;;5102816;28;20437;-74
2021/05/06 00:08:00;;;;;;;8.05;4.65;;;9.90;95.00;;;;;;5103669;28;20416;-72
2021/05/06 00:30:01;;;;;;;11.80;6.70;;;9.70;96.20;;;;;;5102978;28;20952;-72
2021/05/06 00:32:28;;;;;;;11.07;6.88;;;9.60;96.00;;;;;;5104283;28;21037;-73
2021/05/06 00:34:55;;;;;;;11.63;7.60;;;9.70;96.10;;;;;;5099689;28;20429;-71
2021/05/06 00:37:22;;;;;;;9.75;8.00;;;9.60;96.00;;;;;;5105027;28;20454;-71
2021/05/06 00:39:52;;;;;;;10.07;7.90;;;9.70;96.10;;;;;;5100375;28;20416;-72
2021/05/06 00:42:34;;;;;;;9.63;8.30;;;9.60;96.30;;;;;;5105327;28;20433;-70
2021/05/06 00:59:21;;;;;;;14.57;11.90;;;9.60;96.70;;;;;;5100927;28;20408;-72
2021/05/06 01:04:37;;;;;;;14.73;11.77;;;9.50;96.90;;;;;;5097832;28;20557;-72
2021/05/06 01:10:02;;;;;;;17.93;12.40;;;9.50;97.10;;;;;;5094327;28;20993;-72
2021/05/06 01:12:32;;;;;;;16.15;12.90;;;9.50;96.90;;;;;;5103855;28;20436;-72
2021/05/06 01:14:58;;;;;;;16.50;12.98;;;9.50;97.10;;;;;;5102156;28;20486;-72
2021/05/06 01:17:26;;;;;;;17.27;13.60;;;9.60;97.20;;;;;;5101562;28;20449;-71
2021/05/06 01:19:52;;;;;;;17.23;13.32;;;9.60;97.50;;;;;;5100555;28;20448;-72
2021/05/06 01:22:20;;;;;;;18.90;13.70;;;9.50;97.70;;;;;;5105464;28;20801;-73
2021/05/06 01:24:51;;;;;;;16.95;13.48;;;9.50;97.60;;;;;;5103618;28;20429;-71
2021/05/06 01:27:20;;;;;;;18.38;13.85;;;9.60;97.60;;;;;;5104087;28;20503;-71
2021/05/06 01:29:52;;;;;;;17.13;13.80;;;9.60;97.50;;;;;;5106271;28;20445;-72
2021/05/06 01:32:23;;;;;;;17.52;14.27;;;9.60;97.20;;;;;;5106724;28;20412;-72
2021/05/06 01:34:54;;;;;;;18.02;14.07;;;9.70;97.10;;;;;;5104786;28;20461;-72
2021/05/06 01:37:26;;;;;;;17.90;14.32;;;9.60;97.20;;;;;;5106161;28;20431;-71
2021/05/06 01:42:39;;;;;;;19.75;14.95;;;9.50;97.00;;;;;;5105588;28;20479;-71
2021/05/06 01:47:56;;;;;;;19.42;15.05;;;9.40;97.50;;;;;;5091427;28;20413;-71
2021/05/06 01:50:49;;;;;;;19.90;15.95;;;9.40;97.30;;;;;;5106562;28;20939;-71
2021/05/06 01:58:49;;;;;;;21.60;15.90;;;9.30;97.30;;;;;;5107168;28;20408;-74
2021/05/06 02:01:15;;;;;;;25.00;17.17;;;9.30;97.40;;;;;;5102619;28;20921;-71
2021/05/06 02:03:42;;;;;;;25.25;17.70;;;9.20;97.50;;;;;;5106339;28;20419;-72
2021/05/06 02:06:08;;;;;;;24.17;17.80;;;9.20;97.70;;;;;;5103871;28;20408;-73
2021/05/06 02:08:36;;;;;;;25.63;18.75;;;9.20;97.70;;;;;;5104617;28;20447;-71
2021/05/06 02:11:09;;;;;;;26.13;19.38;;;9.10;97.70;;;;;;5101269;28;20412;-75
2021/05/06 02:14:06;;;;;;;27.10;20.40;;;9.10;97.80;;;;;;5091520;28;20525;-72
2021/05/06 02:16:39;;;;;;;27.25;20.45;;;9.00;98.00;;;;;;5134487;27;20416;-72
2021/05/06 02:19:08;;;;;;;26.83;20.95;;;8.90;98.20;;;;;;5105825;28;20469;-72
2021/05/06 02:21:37;;;;;;;26.80;20.48;;;8.90;98.40;;;;;;5105506;28;20416;-74
2021/05/06 02:24:06;;;;;;;29.10;20.85;;;8.90;98.50;;;;;;5105865;28;20920;-71
2021/05/06 02:26:34;;;;;;;30.50;22.10;;;8.90;98.40;;;;;;5100980;28;20447;-73
2021/05/06 02:29:00;;;;;;;29.52;22.60;;;8.90;98.70;;;;;;5106451;28;20435;-72
2021/05/06 02:31:27;;;;;;;31.92;22.98;;;8.80;98.50;;;;;;5104263;28;20435;-71
2021/05/06 02:33:54;;;;;;;29.20;23.25;;;8.80;98.60;;;;;;5107488;28;20424;-71
2021/05/06 02:36:20;;;;;;;31.52;23.38;;;8.80;98.50;;;;;;5104896;28;20424;-71
2021/05/06 02:38:46;;;;;;;32.85;24.23;;;8.80;98.50;;;;;;5105384;28;20431;-73
2021/05/06 02:41:14;;;;;;;30.98;23.70;;;8.70;98.60;;;;;;5106914;28;20485;-73
2021/05/06 02:43:40;;;;;;;35.38;24.58;;;8.70;98.60;;;;;;5104728;28;20846;-72
2021/05/06 02:46:06;;;;;;;30.37;24.00;;;8.70;98.60;;;;;;5105471;27;20428;-74
2021/05/06 02:48:33;;;;;;;30.90;24.30;;;8.70;98.60;;;;;;5106991;28;20447;-72
2021/05/06 02:51:01;;;;;;;32.90;25.33;;;8.70;98.60;;;;;;5104234;28;20420;-71
2021/05/06 02:53:31;;;;;;;31.27;24.48;;;8.70;98.60;;;;;;5105208;28;20493;-72
2021/05/06 02:56:04;;;;;;;33.42;24.60;;;8.70;98.60;;;;;;5103242;28;20834;-71
2021/05/06 02:58:47;;;;;;;33.33;24.73;;;8.70;98.60;;;;;;5104891;28;20420;-72
2021/05/06 03:04:02;;;;;;;30.25;23.33;;;8.70;98.60;;;;;;5106142;28;20408;-72
2021/05/06 03:06:30;;;;;;;32.85;23.92;;;8.60;98.80;;;;;;5103466;28;20854;-72
2021/05/06 03:08:59;;;;;;;32.67;25.00;;;8.60;98.40;;;;;;5103128;28;20436;-72
2021/05/06 03:11:38;;;;;;;30.30;22.88;;;8.60;98.60;;;;;;5103909;28;20424;-72
2021/05/06 03:25:06;;;;;;;29.65;21.80;;;8.70;98.40;;;;;;5100377;28;20421;-74
2021/05/06 03:27:34;;;;;;;26.58;20.23;;;8.80;98.30;;;;;;5101883;28;20424;-72
2021/05/06 03:30:11;;;;;;;25.77;19.92;;;8.70;98.20;;;;;;5101529;28;20427;-71
2021/05/06 03:32:48;;;;;;;29.33;21.30;;;8.70;98.20;;;;;;5106459;28;20975;-70
2021/05/06 03:35:27;;;;;;;27.98;20.98;;;8.80;98.40;;;;;;5104875;28;20539;-70
2021/05/06 03:43:36;;;;;;;28.95;21.77;;;8.80;98.30;;;;;;5105183;28;20408;-72
2021/05/06 03:49:21;;;;;;;29.42;22.55;;;8.80;98.10;;;;;;5105593;28;20424;-70
2021/05/06 04:16:41;;;;;;;39.53;26.48;;;8.60;96.20;;;;;;5098760;28;20262;-72
2021/05/06 04:19:14;;;;;;;40.70;26.50;;;8.30;96.60;;;;;;5100442;28;20189;-71
2021/05/06 04:21:45;;;;;;;46.97;26.08;;;8.10;97.50;;;;;;5102493;28;20292;-72
2021/05/06 04:27:05;;;;;;;38.67;22.25;;;7.70;98.60;;;;;;5101910;28;20613;-69
2021/05/06 04:35:38;;;;;;;32.72;20.63;;;7.00;97.90;;;;;;5103140;28;20219;-72
2021/05/06 04:38:04;;;;;;;35.38;20.95;;;7.00;98.80;;;;;;5103004;28;20609;-72
2021/05/06 04:40:46;;;;;;;38.13;23.10;;;6.90;99.80;;;;;;5103219;28;20231;-70
2021/05/06 04:46:38;;;;;;;41.45;25.27;;;6.90;99.90;;;;;;5102089;28;20726;-72
2021/05/06 04:54:36;;;;;;;34.10;19.38;;;7.00;99.90;;;;;;5099070;28;20289;-72
2021/05/06 04:57:38;;;;;;;28.45;19.25;;;7.00;99.90;;;;;;5106313;28;20312;-71
2021/05/06 05:05:31;;;;;;;29.40;17.25;;;7.00;99.90;;;;;;5105124;28;20204;-71
2021/05/06 05:08:04;;;;;;;25.00;15.95;;;7.00;99.90;;;;;;5108097;28;20205;-71
2021/05/06 05:10:43;;;;;;;24.58;15.38;;;7.00;99.90;;;;;;5106126;28;20244;-71
2021/05/06 05:18:49;;;;;;;25.65;13.85;;;6.90;99.90;;;;;;5105174;28;20190;-71
2021/05/06 05:21:20;;;;;;;21.73;12.77;;;6.90;99.90;;;;;;5105786;28;20224;-70
2021/05/06 05:23:47;;;;;;;21.95;12.25;;;6.90;99.90;;;;;;5105971;28;20304;-70
2021/05/06 05:26:14;;;;;;;18.75;12.10;;;6.90;99.90;;;;;;5107958;28;20213;-72
2021/05/06 05:28:41;;;;;;;16.70;11.93;;;6.90;99.90;;;;;;5106793;28;20574;-72
2021/05/06 05:31:08;;;;;;;17.55;11.60;;;6.90;99.90;;;;;;5106988;28;20725;-72
2021/05/06 05:33:38;;;;;;;17.75;11.07;;;6.90;99.90;;;;;;5108497;28;20205;-72
2021/05/06 05:36:13;;;;;;;17.83;11.10;;;6.90;99.90;;;;;;5110336;28;20208;-73
2021/05/06 05:38:48;;;;;;;17.55;12.10;;;6.90;99.90;;;;;;5106334;28;20192;-73
2021/05/06 05:55:22;;;;;;;22.70;14.55;;;7.10;99.90;;;;;;5052665;28;20203;-71
2021/05/06 05:57:51;;;;;;;19.27;13.45;;;7.10;99.90;;;;;;5048783;28;20604;-71
2021/05/06 06:00:18;;;;;;;21.05;14.20;;;7.10;99.90;;;;;;5075540;28;20229;-73
2021/05/06 06:02:44;;;;;;;22.88;13.60;;;7.10;99.90;;;;;;5108562;28;20208;-71
2021/05/06 06:05:11;;;;;;;22.60;13.38;;;7.10;99.90;;;;;;5109239;28;20197;-71
2021/05/06 06:07:38;;;;;;;20.95;13.75;;;7.10;99.90;;;;;;5110876;28;20205;-73
2021/05/06 06:10:06;;;;;;;20.15;13.07;;;7.10;99.90;;;;;;5111330;28;20201;-70
2021/05/06 06:12:32;;;;;;;20.58;12.80;;;7.20;99.90;;;;;;5111642;28;20197;-72
2021/05/06 06:15:01;;;;;;;21.15;16.15;;;7.20;99.90;;;;;;5107665;28;20423;-71
2021/05/06 06:17:28;;;;;;;19.15;15.52;;;7.50;99.90;;;;;;5109461;28;20843;-70
2021/05/06 06:19:58;;;;;;;23.13;16.23;;;7.80;99.90;;;;;;5108135;28;20436;-71
2021/05/06 06:22:26;;;;;;;21.30;15.73;;;8.00;99.90;;;;;;5107710;28;20415;-71
2021/05/06 06:24:52;;;;;;;20.95;15.70;;;8.20;99.90;;;;;;5109606;28;20899;-71
2021/05/06 06:27:20;;;;;;;19.63;15.73;;;8.30;99.90;;;;;;5110230;28;20423;-71
2021/05/06 06:29:47;;;;;;;22.13;16.23;;;8.40;99.90;;;;;;5110232;28;20416;-70
2021/05/06 06:32:16;;;;;;;19.88;15.55;;;8.50;99.90;;;;;;5109378;28;20423;-70
2021/05/06 06:34:42;;;;;;;21.65;16.17;;;8.60;99.90;;;;;;5108134;28;20416;-70
2021/05/06 06:37:09;;;;;;;21.90;16.37;;;8.70;99.90;;;;;;5108564;28;20419;-74
2021/05/06 06:39:38;;;;;;;81.45;17.73;;;8.70;99.90;;;;;;5106782;28;20446;-71
2021/05/06 06:42:07;;;;;;;21.15;15.30;;;8.80;99.90;;;;;;5109052;28;20476;-71
2021/05/06 06:44:34;;;;;;;20.63;16.00;;;9.00;99.90;;;;;;5110140;28;20469;-71
2021/05/06 06:47:03;;;;;;;19.17;15.45;;;9.00;99.90;;;;;;5110562;28;20722;-72
2021/05/06 06:49:32;;;;;;;16.95;12.77;;;9.10;99.90;;;;;;5109191;27;20439;-70
2021/05/06 06:51:58;;;;;;;18.57;12.67;;;9.20;99.90;;;;;;5106368;28;20416;-71
2021/05/06 06:54:26;;;;;;;16.10;11.90;;;9.30;99.90;;;;;;5108542;28;20428;-73
2021/05/06 06:56:52;;;;;;;16.95;13.13;;;9.40;99.90;;;;;;5110144;28;20401;-72
2021/05/06 06:59:19;;;;;;;16.38;11.90;;;9.40;99.90;;;;;;5106646;28;20416;-73
2021/05/06 07:01:46;;;;;;;13.63;10.00;;;9.50;99.90;;;;;;5107695;28;20451;-75
2021/05/06 07:04:12;;;;;;;14.75;9.63;;;9.60;99.20;;;;;;5109579;28;20423;-73
2021/05/06 07:06:40;;;;;;;20.05;11.95;;;9.70;99.90;;;;;;5109724;28;20201;-71
2021/05/06 07:09:09;;;;;;;11.75;8.98;;;9.40;99.90;;;;;;5103950;28;20201;-76
2021/05/06 07:11:36;;;;;;;19.98;11.88;;;9.30;99.90;;;;;;5109756;28;20576;-73
2021/05/06 07:14:04;;;;;;;15.07;10.15;;;9.10;99.90;;;;;;5109108;28;22010;-72
2021/05/06 07:16:30;;;;;;;7.50;6.15;;;9.00;99.90;;;;;;5109199;28;20189;-73
2021/05/06 07:18:57;;;;;;;10.55;5.40;;;8.90;99.90;;;;;;5107717;28;20211;-72
2021/05/06 07:21:24;;;;;;;9.20;4.68;;;8.80;99.90;;;;;;5110239;28;20292;-72
2021/05/06 07:23:53;;;;;;;15.60;5.85;;;8.70;99.90;;;;;;5109326;28;20201;-74
2021/05/06 07:26:20;;;;;;;11.05;5.10;;;8.70;99.90;;;;;;5109133;28;20189;-71
2021/05/06 07:28:49;;;;;;;12.35;4.93;;;8.60;99.90;;;;;;5107847;28;20731;-72
2021/05/06 07:31:15;;;;;;;7.45;4.53;;;8.60;99.90;;;;;;5107781;28;20544;-73
2021/05/06 07:33:43;;;;;;;10.48;4.30;;;8.60;99.90;;;;;;5107912;28;20220;-71
2021/05/06 07:36:11;;;;;;;10.27;4.45;;;8.60;99.90;;;;;;5110963;28;20204;-73
2021/05/06 07:38:37;;;;;;;12.70;4.78;;;8.60;99.90;;;;;;5104119;28;20209;-73
2021/05/06 07:41:05;;;;;;;11.55;4.50;;;8.50;99.90;;;;;;5110584;28;20604;-72
2021/05/06 07:43:31;;;;;;;18.48;4.88;;;8.50;99.90;;;;;;5107789;28;20189;-72
2021/05/06 07:45:58;;;;;;;15.32;4.97;;;8.50;99.90;;;;;;5110024;28;20714;-72
2021/05/06 07:48:24;;;;;;;7.00;4.10;;;8.50;99.90;;;;;;5110699;28;20220;-73
2021/05/06 07:50:51;;;;;;;12.40;4.97;;;8.50;99.70;;;;;;5108856;28;20201;-73
2021/05/06 07:53:24;;;;;;;14.82;5.00;;;8.50;99.60;;;;;;5110186;28;20197;-73
2021/05/06 07:55:51;;;;;;;11.98;4.85;;;8.50;99.40;;;;;;5109347;28;20212;-71
2021/05/06 07:58:18;;;;;;;21.98;5.47;;;8.50;99.10;;;;;;5109589;28;20311;-74
2021/05/06 08:00:45;;;;;;;20.30;4.80;;;8.50;98.80;;;;;;5107346;28;20306;-73
2021/05/06 08:03:11;;;;;;;9.18;4.38;;;8.50;98.50;;;;;;5108409;28;20608;-71
2021/05/06 08:05:38;;;;;;;6.55;3.90;;;8.50;98.30;;;;;;5106688;28;20193;-71
2021/05/06 08:08:05;;;;;;;5.28;3.60;;;8.50;98.10;;;;;;5110141;28;20284;-71
2021/05/06 08:10:31;;;;;;;6.90;3.92;;;8.50;97.80;;;;;;5109597;28;20189;-72
2021/05/06 08:13:02;;;;;;;7.68;4.65;;;8.50;97.70;;;;;;5120088;27;20197;-78
2021/05/06 08:15:30;;;;;;;6.25;3.97;;;8.50;97.70;;;;;;5100843;28;20197;-72
2021/05/06 08:17:56;;;;;;;6.80;4.20;;;8.60;97.60;;;;;;5097947;28;20213;-73
2021/05/06 08:20:22;;;;;;;7.63;3.70;;;8.70;97.50;;;;;;5102040;28;20213;-72
2021/05/06 08:22:49;;;;;;;8.45;4.30;;;8.70;97.40;;;;;;5102459;28;20197;-73
2021/05/06 08:25:19;;;;;;;5.55;3.72;;;8.70;97.10;;;;;;5096177;28;20202;-72
2021/05/06 08:27:45;;;;;;;4.88;3.30;;;8.80;96.90;;;;;;5099341;28;20550;-74
2021/05/06 08:30:14;;;;;;;6.78;3.80;;;8.80;96.70;;;;;;5100472;28;20194;-73
2021/05/06 08:32:41;;;;;;;6.47;3.88;;;8.90;96.30;;;;;;5106537;28;20232;-72
2021/05/06 08:35:09;;;;;;;5.55;4.40;;;8.90;96.00;;;;;;5099274;28;20661;-73
2021/05/06 08:37:36;;;;;;;5.63;3.90;;;8.90;95.80;;;;;;5111325;28;20201;-71
2021/05/06 08:40:04;;;;;;;10.07;4.20;;;9.00;95.60;;;;;;5108227;28;20228;-73
2021/05/06 08:42:31;;;;;;;7.80;4.20;;;9.00;95.40;;;;;;5109533;28;20201;-72
2021/05/06 08:44:58;;;;;;;7.43;3.80;;;9.10;95.30;;;;;;5103837;28;20284;-72
2021/05/06 08:47:24;;;;;;;7.10;4.03;;;9.20;95.20;;;;;;5140949;27;20213;-72
2021/05/06 08:49:51;;;;;;;5.90;3.90;;;9.30;95.00;;;;;;5106625;28;20212;-71
2021/05/06 08:52:20;;;;;;;8.27;5.20;;;9.30;94.70;;;;;;5105836;28;20673;-72
2021/05/06 08:54:47;;;;;;;7.82;3.83;;;9.40;94.40;;;;;;5107184;28;20250;-72
2021/05/06 08:57:14;;;;;;;6.93;4.28;;;9.40;94.20;;;;;;5107304;28;20351;-71
2021/05/06 08:59:41;;;;;;;7.93;4.05;;;9.40;94.00;;;;;;5106560;28;20650;-72
2021/05/06 09:02:07;;;;;;;7.80;4.97;;;9.40;93.60;;;;;;5107310;28;20205;-71
2021/05/06 09:04:34;;;;;;;7.05;4.32;;;9.40;93.30;;;;;;5106786;28;20205;-70
2021/05/06 09:07:02;;;;;;;6.65;4.63;;;9.40;93.00;;;;;;5106969;28;20208;-70
2021/05/06 09:09:30;;;;;;;7.00;4.72;;;9.50;93.00;;;;;;5105311;28;20294;-71
2021/05/06 09:11:58;;;;;;;6.95;4.78;;;9.50;92.90;;;;;;5107764;28;20672;-72
2021/05/06 09:14:38;;;;;;;14.68;5.47;;;9.50;92.80;;;;;;5103877;28;20692;-71
2021/05/06 09:17:06;;;;;;;16.33;5.28;;;9.50;92.70;;;;;;5108617;28;20651;-70
2021/05/06 09:19:32;;;;;;;9.02;5.05;;;9.60;92.50;;;;;;5104705;28;20270;-72
2021/05/06 09:21:59;;;;;;;8.63;4.60;;;9.60;92.00;;;;;;5111639;28;20699;-71
2021/05/06 09:24:35;;;;;;;5.75;4.47;;;9.60;91.70;;;;;;5106916;28;20737;-69
2021/05/06 09:27:03;;;;;;;8.02;4.72;;;9.70;91.50;;;;;;5110453;28;20277;-70
2021/05/06 09:29:35;;;;;;;6.78;4.68;;;9.70;91.40;;;;;;5104916;28;20294;-73
2021/05/06 09:32:10;;;;;;;14.73;5.15;;;9.70;91.30;;;;;;5110618;28;20201;-70
2021/05/06 09:34:38;;;;;;;8.05;4.60;;;9.80;91.30;;;;;;5108056;28;20209;-71
2021/05/06 09:37:07;;;;;;;10.02;4.80;;;9.80;91.20;;;;;;5110666;28;20254;-69
2021/05/06 09:39:35;;;;;;;5.90;4.75;;;9.90;91.00;;;;;;5102658;28;20257;-68
2021/05/06 09:42:09;;;;;;;9.48;4.80;;;10.00;90.80;;;;;;5106664;28;20202;-69
2021/05/06 09:44:55;;;;;;;10.45;4.45;;;10.00;90.60;;;;;;5107454;28;20315;-73
2021/05/06 09:47:21;;;;;;;7.63;4.07;;;10.10;90.30;;;;;;5105381;28;20200;-69
2021/05/06 09:49:49;;;;;;;6.75;4.13;;;10.20;90.00;;;;;;5106797;28;20213;-69
2021/05/06 09:52:16;;;;;;;8.68;4.70;;;10.20;89.30;;;;;;5109522;28;20204;-69
2021/05/06 09:54:48;;;;;;;6.15;3.90;;;10.20;88.90;;;;;;5107536;28;20204;-69
2021/05/06 09:57:25;;;;;;;6.55;4.15;;;10.20;87.80;;;;;;5106286;28;20233;-69
2021/05/06 10:00:10;;;;;;;5.82;3.92;;;10.30;86.90;;;;;;5104957;28;20321;-68
2021/05/06 10:02:37;;;;;;;8.35;4.28;;;10.30;86.70;;;;;;5104919;28;20189;-68
2021/05/06 10:05:06;;;;;;;6.53;3.83;;;10.40;86.50;;;;;;5108727;28;20193;-73
2021/05/06 10:07:33;;;;;;;6.50;4.50;;;10.50;86.60;;;;;;5106783;28;20261;-70
2021/05/06 10:10:04;;;;;;;6.63;3.97;;;10.50;86.70;;;;;;5106804;28;20645;-68
2021/05/06 10:12:31;;;;;;;8.02;4.07;;;10.60;86.50;;;;;;5105302;28;20201;-70
2021/05/06 10:14:58;;;;;;;7.45;4.95;;;10.70;86.10;;;;;;5101771;28;20923;-71
2021/05/06 10:17:27;;;;;;;7.82;4.55;;;10.70;85.40;;;;;;5100987;28;20217;-71
2021/05/06 10:19:54;;;;;;;8.23;5.00;;;10.80;85.50;;;;;;5100703;28;20229;-70
2021/05/06 10:22:23;;;;;;;7.78;5.10;;;10.90;85.40;;;;;;5106498;28;20205;-72
2021/05/06 10:24:50;;;;;;;10.85;5.45;;;10.90;85.40;;;;;;5098878;28;20210;-70
2021/05/06 10:27:19;;;;;;;9.05;5.20;;;11.00;85.40;;;;;;5105334;28;20202;-71
2021/05/06 10:29:46;;;;;;;7.43;4.90;;;11.00;85.10;;;;;;5098433;28;20193;-70
2021/05/06 10:32:15;;;;;;;10.73;5.47;;;11.10;85.30;;;;;;5098951;28;20266;-70
2021/05/06 10:34:43;;;;;;;9.00;5.07;;;11.20;85.80;;;;;;5098749;28;20197;-71
2021/05/06 10:37:10;;;;;;;14.80;5.75;;;11.20;84.70;;;;;;5101627;28;20197;-71
2021/05/06 10:39:37;;;;;;;;;;;11.30;84.70;;;;;;5099168;28;20097;-71
2021/05/06 10:42:18;;;;;;;;;;;11.30;85.10;;;;;;5099014;28;19924;-69
2021/05/06 10:44:45;;;;;;;;;;;11.40;85.70;;;;;;5100279;27;19927;-69
2021/05/06 10:47:14;;;;;;;;;;;11.50;85.90;;;;;;5099604;28;19931;-69
2021/05/06 10:49:55;;;;;;;;;;;11.60;85.80;;;;;;5103848;28;20295;-71
2021/05/06 10:52:35;;;;;;;;;;;11.60;85.70;;;;;;5094851;28;20292;-71
2021/05/06 10:55:02;;;;;;;;;;;11.60;86.00;;;;;;5105173;28;19945;-73
2021/05/06 10:57:30;;;;;;;;;;;11.60;85.30;;;;;;5104308;28;19928;-73
2021/05/06 10:59:57;;;;;;;;;;;11.70;83.90;;;;;;5106196;28;20576;-70
2021/05/06 11:02:43;;;;;;;;;;;11.70;84.30;;;;;;5107518;28;19924;-69
2021/05/06 11:05:10;;;;;;;;;;;11.70;85.10;;;;;;5104743;28;19924;-70
2021/05/06 11:07:36;;;;;;;;;;;11.70;84.10;;;;;;5107763;28;19930;-71
2021/05/06 11:10:04;;;;;;;;;;;11.80;83.60;;;;;;5103333;28;19920;-70
2021/05/06 11:12:34;;;;;;;;;;;11.80;84.10;;;;;;5103228;28;20360;-69
2021/05/06 11:15:28;;;;;;;;;;;11.80;84.80;;;;;;5103692;28;20148;-69
2021/05/06 11:17:56;;;;;;;;;;;11.90;85.30;;;;;;5105684;28;20391;-69
2021/05/06 11:20:42;;;;;;;;;;;11.90;84.60;;;;;;5105828;28;19924;-68
2021/05/06 11:23:36;;;;;;;;;;;11.90;84.20;;;;;;5106948;28;19927;-70
2021/05/06 11:26:17;;;;;;;;;;;11.90;83.90;;;;;;5106300;28;19920;-71
2021/05/06 11:28:47;;;;;;;;;;;11.90;83.40;;;;;;5105857;28;20010;-70
2021/05/06 11:31:14;;;;;;;;;;;11.90;83.80;;;;;;5104378;28;19923;-72
2021/05/06 11:33:41;;;;;;;;;;;11.90;84.30;;;;;;5105802;28;19930;-71
2021/05/06 11:36:09;;;;;;;;;;;11.90;83.20;;;;;;5103930;28;20390;-68
2021/05/06 11:38:45;;;;;;;;;;;11.90;83.30;;;;;;5106399;28;19927;-69
2021/05/06 11:41:12;;;;;;;;;;;11.90;83.30;;;;;;5106240;28;19971;-68
2021/05/06 11:43:40;;;;;;;;;;;11.90;84.10;;;;;;5106712;28;19926;-69
2021/05/06 11:46:07;;;;;;;;;;;12.00;83.70;;;;;;5102542;28;19928;-70
2021/05/06 11:48:33;;;;;;;;;;;12.00;83.20;;;;;;5105985;28;19928;-71
2021/05/06 11:51:01;;;;;;;;;;;12.00;84.00;;;;;;5107813;27;19926;-69
2021/05/06 11:53:27;;;;;;;;;;;12.10;83.70;;;;;;5105781;28;19935;-69
2021/05/06 11:55:53;;;;;;;;;;;12.10;83.40;;;;;;5104655;28;19920;-70
2021/05/06 11:58:23;;;;;;;;;;;12.10;82.40;;;;;;5106667;28;19923;-71
2021/05/06 12:00:51;;;;;;;;;;;12.10;82.40;;;;;;5106219;28;19928;-71
2021/05/06 12:03:18;;;;;;;;;;;12.00;83.10;;;;;;5106552;28;19923;-69
2021/05/06 12:05:52;;;;;;;;;;;12.00;83.50;;;;;;5101400;28;20276;-69
2021/05/06 12:08:20;;;;;;;;;;;12.00;84.50;;;;;;5107868;28;19930;-69
2021/05/06 12:10:46;;;;;;;;;;;12.00;84.30;;;;;;5100988;28;20022;-68
2021/05/06 12:13:12;;;;;;;;;;;12.10;84.80;;;;;;5106282;28;20014;-70
2021/05/06 12:15:38;;;;;;;;;;;12.20;85.70;;;;;;5102780;28;19938;-69
2021/05/06 12:18:17;;;;;;;;;;;12.30;85.80;;;;;;5106164;28;19923;-70
2021/05/06 12:20:47;;;;;;;;;;;12.30;83.70;;;;;;5102721;28;19927;-68
2021/05/06 12:23:14;;;;;;;;;;;12.40;83.80;;;;;;5106253;28;19938;-68
2021/05/06 12:25:41;;;;;;;;;;;12.60;83.60;;;;;;5101332;28;19927;-70
2021/05/06 12:28:07;;;;;;;;;;;12.70;82.30;;;;;;5104624;28;19920;-70
2021/05/06 12:30:33;;;;;;;;;;;12.80;83.00;;;;;;5103719;28;19919;-70
2021/05/06 12:32:59;;;;;;;;;;;12.90;82.50;;;;;;5102723;28;19920;-70
2021/05/06 12:35:26;;;;;;;;;;;13.10;81.60;;;;;;5103821;28;20030;-70
2021/05/06 12:37:53;;;;;;;;;;;13.20;82.00;;;;;;5102475;28;20316;-69
2021/05/06 12:40:19;;;;;;;;;;;13.30;82.30;;;;;;5102715;28;19924;-70
2021/05/06 12:42:47;;;;;;;;;;;13.40;79.80;;;;;;5100078;28;19932;-69
2021/05/06 12:45:27;;;;;;;;;;;13.40;81.90;;;;;;5102166;28;19968;-71
2021/05/06 12:47:53;;;;;;;;;;;13.50;80.60;;;;;;5102151;28;19923;-70
2021/05/06 12:50:21;;;;;;;;;;;13.50;79.40;;;;;;5100004;28;20022;-70
2021/05/06 12:52:48;;;;;;;;;;;13.40;79.70;;;;;;5101281;28;19951;-71
2021/05/06 12:55:18;;;;;;;;;;;13.50;81.20;;;;;;5100386;28;20364;-71
2021/05/06 12:57:45;;;;;;;;;;;13.50;82.00;;;;;;5102700;28;19920;-70
2021/05/06 13:00:19;;;;;;;;;;;13.60;81.60;;;;;;5097895;28;19924;-71
2021/05/06 13:02:46;;;;;;;;;;;13.70;82.10;;;;;;5103313;28;20075;-70
2021/05/06 13:05:13;;;;;;;;;;;13.70;80.30;;;;;;5100195;28;19981;-70
2021/05/06 13:07:49;;;;;;;;;;;13.60;80.60;;;;;;5100207;28;19938;-70
2021/05/06 13:10:26;;;;;;;;;;;13.50;79.30;;;;;;5098515;28;19928;-71
2021/05/06 13:12:52;;;;;;;;;;;13.40;80.70;;;;;;5103555;28;19924;-71
2021/05/06 13:15:19;;;;;;;;;;;13.20;80.90;;;;;;5098231;28;20289;-72
2021/05/06 13:17:45;;;;;;;;;;;13.10;81.20;;;;;;5103769;28;20376;-70
2021/05/06 13:20:16;;;;;;;;;;;12.90;80.50;;;;;;5102230;28;19920;-69
2021/05/06 13:22:57;;;;;;;;;;;12.90;81.10;;;;;;5100587;28;19923;-72
2021/05/06 13:25:38;;;;;;;;;;;12.80;83.50;;;;;;5108123;28;19923;-73
2021/05/06 13:28:04;;;;;;;;;;;12.70;82.30;;;;;;5109883;27;19992;-71
2021/05/06 13:30:31;;;;;;;;;;;12.70;82.90;;;;;;5098014;28;19935;-70
2021/05/06 13:33:08;;;;;;;;;;;12.80;83.40;;;;;;5109777;28;19923;-71
2021/05/06 13:35:34;;;;;;;;;;;12.90;84.20;;;;;;5105232;28;19935;-71
2021/05/06 13:38:00;;;;;;;;;;;12.90;82.60;;;;;;5109450;28;19949;-69
2021/05/06 13:40:27;;;;;;;;;;;13.10;83.70;;;;;;5099948;28;19942;-71
2021/05/06 13:42:53;;;;;;;8.70;4.88;;;13.30;84.70;;;;;;5103072;28;20211;-70
2021/05/06 13:45:19;;;;;;;9.10;4.80;;;13.70;87.60;;;;;;5101514;28;20216;-71
2021/05/06 13:47:48;;;;;;;8.75;4.82;;;13.90;85.30;;;;;;5103898;28;20247;-72
2021/05/06 13:50:15;;;;;;;10.00;4.70;;;14.20;81.90;;;;;;5097716;28;20266;-70
2021/05/06 13:52:42;;;;;;;10.15;4.88;;;14.30;80.00;;;;;;5104932;28;20197;-70
2021/05/06 13:55:09;;;;;;;9.40;4.53;;;14.50;78.50;;;;;;5104132;28;20209;-70
2021/05/06 13:57:37;;;;;;;5.93;4.18;;;14.50;76.20;;;;;;5106622;28;20240;-70
2021/05/06 14:00:04;;;;;;;9.10;4.70;;;14.60;74.70;;;;;;5100162;28;20431;-69
2021/05/06 14:02:38;;;;;;;7.03;4.47;;;15.10;61.50;;;;;;5109304;28;20997;-70
2021/05/06 14:05:06;;;;;;;9.73;5.43;;;15.60;59.60;;;;;;5109490;28;20992;-69
2021/05/06 14:10:24;;;;;;;11.53;5.10;;;16.20;56.80;;;;;;4857318;28;20427;-71
2021/05/06 14:12:50;;;;;;;8.68;5.05;;;16.50;55.40;;;;;;5010950;28;20416;-69
2021/05/06 14:15:17;;;;;;;8.63;5.00;;;16.60;55.40;;;;;;5008102;28;20422;-70
2021/05/06 14:17:44;;;;;;;9.13;4.97;;;16.70;54.90;;;;;;5018805;28;20415;-69
2021/05/06 14:20:12;;;;;;;8.13;4.80;;;16.80;55.90;;;;;;5002671;28;20441;-68
2021/05/06 14:22:39;;;;;;;11.77;4.63;;;17.20;53.60;;;;;;5010668;28;20431;-70
2021/05/06 14:25:06;;;;;;;7.95;4.32;;;17.50;52.10;;;;;;5010617;28;20515;-69
2021/05/06 14:27:33;;;;;;;7.05;3.90;;;17.80;51.00;;;;;;5010921;28;20420;-70
2021/05/06 14:30:00;;;;;;;8.10;3.88;;;18.20;49.40;;;;;;5007294;28;20430;-69
2021/05/06 14:32:26;;;;;;;7.25;3.05;;;18.70;47.20;;;;;;5012476;28;20219;-71
2021/05/06 14:34:54;;;;;;;6.25;3.20;;;18.40;50.60;;;;;;5018992;28;20415;-71
2021/05/06 14:37:22;;;;;;;9.35;3.88;;;19.10;46.40;;;;;;5013585;28;20238;-70
2021/05/06 14:39:49;;;;;;;6.78;3.65;;;18.90;48.80;;;;;;5016448;28;20239;-71
2021/05/06 14:42:16;;;;;;;6.95;3.50;;;18.90;50.10;;;;;;5011181;28;20228;-70
2021/05/06 14:44:42;;;;;;;7.03;3.20;;;18.90;51.20;;;;;;5011707;28;20188;-70
2021/05/06 14:47:09;;;;;;;7.78;3.40;;;19.10;51.90;;;;;;5011412;28;20208;-70
2021/05/06 14:49:36;;;;;;;5.68;3.50;;;19.20;51.00;;;;;;5008206;28;20193;-68
2021/05/06 14:52:02;;;;;;;7.40;3.67;;;19.20;50.00;;;;;;5010744;28;20201;-69
2021/05/06 14:54:29;;;;;;;8.85;3.83;;;19.10;50.20;;;;;;5011651;28;20310;-71
2021/05/06 14:56:55;;;;;;;6.60;3.50;;;19.00;50.50;;;;;;5027062;28;20203;-71
2021/05/06 14:59:22;;;;;;;7.82;3.53;;;19.00;50.70;;;;;;5013246;28;20735;-71
2021/05/06 15:01:48;;;;;;;6.72;3.50;;;19.00;50.70;;;;;;5011335;28;20220;-71
2021/05/06 15:04:15;;;;;;;4.60;3.13;;;19.10;50.50;;;;;;5007135;28;20212;-70
2021/05/06 15:06:41;;;;;;;7.35;3.72;;;19.30;50.10;;;;;;5011532;28;20680;-71
2021/05/06 15:09:07;;;;;;;8.45;3.85;;;19.50;50.20;;;;;;5011526;28;20240;-73
2021/05/06 15:11:34;;;;;;;6.20;3.33;;;19.60;49.90;;;;;;4990207;28;20204;-71
2021/05/06 15:14:01;;;;;;;7.38;3.63;;;19.70;49.10;;;;;;5003925;28;20211;-71
2021/05/06 15:16:27;;;;;;;7.57;3.30;;;19.50;48.20;;;;;;5008595;28;20668;-71
2021/05/06 15:18:53;;;;;;;8.43;3.63;;;19.20;47.90;;;;;;5009779;28;20201;-71
2021/05/06 15:21:20;;;;;;;6.32;3.55;;;18.90;48.10;;;;;;5011092;28;20584;-70
2021/05/06 15:23:46;;;;;;;8.85;3.88;;;18.70;48.60;;;;;;5013107;28;20205;-71
2021/05/06 15:26:12;;;;;;;10.68;3.85;;;18.40;48.90;;;;;;5006712;28;20606;-70
2021/05/06 15:28:39;;;;;;;8.73;3.67;;;18.40;49.40;;;;;;5006741;28;20577;-71
2021/05/06 15:31:06;;;;;;;6.57;3.05;;;18.40;49.90;;;;;;5012798;28;20224;-72
2021/05/06 15:33:32;;;;;;;6.22;3.35;;;18.60;50.10;;;;;;5009676;28;20239;-72
2021/05/06 15:35:59;;;;;;;6.25;2.88;;;18.70;49.60;;;;;;5014388;28;20210;-71
2021/05/06 15:38:25;;;;;;;7.90;3.60;;;18.70;48.80;;;;;;5022287;28;20643;-71